Manchester, Vermont
Current Conditions -  °F | °C
As of 10:54 PM on Friday 24 Oct 2014 (Local Time) from KDDH Reporting Station
Overcast Overcast  
Wind Chill: 46°   Ceiling: 4600
Heat Index: 46°   Visibility: 10mi
Dew Point: 41°   Wind: 0mph
Humidity: 83%   Direction: NA
Pressure: 29.84"   Gusts: NA
Location:  43.16°N, 73.07°W
Report Text: KDDH 250254Z AUTO 00000KT 10SM OVC046 08/05 A2984 RMK AO2 SLP107 T00780050 50002
Loading
Personal Weather Stations






























Interactive Weather Map
Tropical Storm Tracking
New forecast layout! Learn more

10-Day Weather Forecast

Advertisements
Track Severe Weather on mobile